Friday, October 20, 2017, 9:16 PM EDT
Back to Local

KWRI, Mcguire Air Force Base

Location: Trenton, NJ, United States Lat: 40.017
Local Time: 9:16 PM EDT ( 1:16 GMT) Lon: -74.6
Time Zone: US/Eastern Elev: 134 ft

Show me the last for .
Show Decoded

2017-10-20 20:56 METAR KWRI 210056Z AUTO 00000KT 10SM CLR 13/05 A3016 RMK AO2 SLP213 T01290051 =
2017-10-20 19:56 METAR KWRI 202356Z COR 22004KT 10SM CLR 14/06 A3016 RMK AO2A SLP213 T01360062
                 10226 20136 52016 COR 0008 =
2017-10-20 18:56 METAR KWRI 202256Z AUTO 28003KT 10SM CLR 18/02 A3013 RMK AO2 SLP203 T01750023 =
2017-10-20 17:56 METAR KWRI 202156Z COR 28005KT 10SM CLR 20/01 A3012 RMK AO2A SLP199 T02000014
                 COR 2229 =
2017-10-20 16:56 METAR KWRI 202056Z AUTO 31009KT 10SM CLR 22/01 A3011 RMK AO2 SLP196 T02200005
                 55007 =
2017-10-20 15:56 METAR KWRI 201956Z AUTO 32009KT 10SM CLR 23/02 A3011 RMK AO2 SLP195 T02250015 =
2017-10-20 14:56 METAR KWRI 201856Z AUTO 30009KT 10SM CLR 22/03 A3011 RMK AO2 SLP196 T02240025 =
2017-10-20 13:56 METAR KWRI 201756Z AUTO 34009G15KT 10SM CLR 22/03 A3013 RMK AO2 SLP202 T02200026
                 10221 20130 57017 $ =
2017-10-20 12:56 METAR KWRI 201656Z AUTO 31008KT 10SM CLR 21/03 A3015 RMK AO2 SLP209 T02110033 $
                 =
2017-10-20 11:56 METAR KWRI 201556Z AUTO 35007KT 10SM CLR 20/04 A3017 RMK AO2 SLP216 T02030035 $
                 =
2017-10-20 10:56 METAR KWRI 201456Z AUTO 34009KT 10SM CLR 19/06 A3018 RMK AO2 SLP220 T01930061
                 50009 $ =
2017-10-20 09:56 METAR KWRI 201356Z AUTO 33007KT 10SM CLR 18/10 A3018 RMK AO2 SLP220 T01750096 $
                 =
2017-10-20 08:56 METAR KWRI 201256Z AUTO 33008KT 10SM CLR 15/09 A3017 RMK AO2 SLPNO T01540093 $ =
2017-10-20 07:56 METAR KWRI 201156Z AUTO 31006KT 10SM CLR 13/09 A3015 RMK AO2 SLPNO T01290088
                 10129 20115 52019 $ =
2017-10-20 06:56 METAR KWRI 201056Z AUTO 30006KT 10SM CLR 12/09 A3013 RMK AO2 SLPNO T01240085 $ =
2017-10-20 05:56 METAR KWRI 200956Z AUTO 28005KT 10SM CLR 12/09 A3011 RMK AO2 SLPNO T01220088 $ =
2017-10-20 04:56 METAR KWRI 200856Z AUTO 29004KT 10SM CLR 13/09 A3009 RMK AO2 SLPNO T01260092
                 55000 $ =
2017-10-20 03:56 METAR KWRI 200756Z AUTO 25003KT 10SM CLR 12/10 A3008 RMK AO2 SLPNO T01220097 $ =
2017-10-20 02:56 METAR KWRI 200656Z AUTO 26006KT 10SM CLR 12/10 A3009 RMK AO2 SLPNO T01210098 $ =
2017-10-20 01:56 METAR KWRI 200556Z AUTO 00000KT 10SM CLR 12/09 A3009 RMK AO2 SLPNO T01150094
                 10136 20106 58002 $ =
2017-10-20 00:56 METAR KWRI 200456Z AUTO 25003KT 10SM CLR 11/09 A3010 RMK AO2 SLPNO T01110090
                 402050054 $ =
2017-10-19 23:56 METAR KWRI 200356Z AUTO 24003KT 10SM CLR 12/09 A3010 RMK AO2 SLP192 T01180092 $
                 =
2017-10-19 22:56 METAR KWRI 200256Z AUTO 23005KT 10SM CLR 12/10 A3010 RMK AO2 SLP192 T01170096 $
                 =
2017-10-19 21:56 METAR KWRI 200156Z AUTO 24006KT 10SM CLR 12/10 A3010 RMK AO2 SLP193 T01240098 $
                 =

Support USWX by starting your Amazon purchase here.